AEP weather

Jorge Newbery Airpark
Buenos Aires, Capital federal, Argentina

Public forecast

Using degrees Celsius for public forecast. Weather courtesy of forecast.io.

METAR (pilot weather report)

Retrieved 2019/06/17 19:41 UTC (17 minutes ago):

SABE 171941Z 35002KT 3000 RA SCT004 OVC018 14/14 Q1016 NOSIG

TAF (pilot weather forecast)

Retrieved 2019/06/17 18:00 UTC (2 hours ago):

TAF SABE 171700Z 1718/1818 VRB05KT 3000 RA DZ SCT004 OVC006 TX16/1718Z TN12/1812Z TEMPO 1718/1800 VRB15KT 1000 TSRA BKN005 OVC015 FEW040CB BECMG 1806/1810 25010KT 7000 RA BKN008 OVC030 BECMG 1812/1815 29015KT BKN015